Private Wetterstation Wechselburg
Wetterdaten: Freitag, 31.12.2021
Datum Zeit Temp. +2m Bodentemp. Temp.+5cm Temp. Wind Windchill X Diff Temp. Feuchte +2m Feuchte +5cm Luftdruck Regen Wind Richtung Richtung Sonnenschein Taupunkt Windchill Windben
31.12.2021 00:00 13,1 C 11,3 C 11,9 C 13,5 C 13,5 C 0,4 C 82 % 90 % 1018,1 hPa 0,0 l/m 5,8 km/h (2 Bft) W-SW 247 0 min 10,1 C 13,5 C 8,5 km/h (2 Bft)
31.12.2021 00:05 13,1 C 11,3 C 11,9 C 13,5 C 13,5 C 0,4 C 82 % 90 % 1018,1 hPa 0,0 l/m 5,8 km/h (2 Bft) N-NO 22 0 min 10,1 C 13,5 C 4,2 km/h (1 Bft)
31.12.2021 00:10 13,1 C 11,3 C 11,9 C 13,3 C 13,3 C 0,2 C 82 % 90 % 1018,2 hPa 0,0 l/m 6,3 km/h (2 Bft) W-SW 247 0 min 10,1 C 13,3 C 9,8 km/h (2 Bft)
31.12.2021 00:15 13,1 C 11,3 C 11,9 C 13,2 C 13,2 C 0,1 C 82 % 90 % 1018,2 hPa 0,0 l/m 6,8 km/h (2 Bft) S 180 0 min 10,1 C 13,2 C 11,4 km/h (2 Bft)
31.12.2021 00:20 13,1 C 11,3 C 11,8 C 13,2 C 13,2 C 0,1 C 82 % 90 % 1018,2 hPa 0,0 l/m 6,6 km/h (2 Bft) SO 135 0 min 10,1 C 13,2 C 6,6 km/h (2 Bft)
31.12.2021 00:25 13,0 C 11,3 C 11,8 C 13,2 C 13,2 C 0,2 C 82 % 90 % 1018,2 hPa 0,0 l/m 6,0 km/h (2 Bft) W-SW 247 0 min 10,0 C 13,2 C 8,7 km/h (2 Bft)
31.12.2021 00:30 13,1 C 11,3 C 11,9 C 13,3 C 13,3 C 0,2 C 82 % 90 % 1018,6 hPa 0,0 l/m 5,1 km/h (1 Bft) W-SW 247 0 min 10,1 C 13,3 C 2,3 km/h (1 Bft)
31.12.2021 00:35 13,0 C 11,3 C 11,8 C 13,3 C 13,3 C 0,3 C 82 % 90 % 1018,6 hPa 0,0 l/m 4,3 km/h (1 Bft) O-NO 67 0 min 10,0 C 13,3 C 2,9 km/h (1 Bft)
31.12.2021 00:40 12,9 C 11,3 C 11,8 C 13,2 C 13,2 C 0,3 C 82 % 90 % 1018,6 hPa 0,0 l/m 3,2 km/h (1 Bft) S-SW 202 0 min 9,9 C 13,2 C 0,0 km/h (0 Bft)
31.12.2021 00:45 12,8 C 11,3 C 11,7 C 13,1 C 13,1 C 0,3 C 82 % 89 % 1018,6 hPa 0,0 l/m 3,2 km/h (1 Bft) W-NW 292 0 min 9,8 C 13,1 C 2,4 km/h (1 Bft)
31.12.2021 00:50 12,8 C 11,3 C 11,7 C 13,1 C 13,1 C 0,3 C 82 % 90 % 1018,4 hPa 0,0 l/m 3,5 km/h (1 Bft) W-SW 247 0 min 9,8 C 13,1 C 9,0 km/h (2 Bft)
31.12.2021 00:55 12,8 C 11,3 C 11,7 C 13,0 C 13,0 C 0,2 C 82 % 90 % 1018,4 hPa 0,0 l/m 3,4 km/h (1 Bft) S 180 0 min 9,8 C 13,0 C 3,1 km/h (1 Bft)
31.12.2021 01:00 12,7 C 11,3 C 11,7 C 13,0 C 13,0 C 0,3 C 82 % 90 % 1018,4 hPa 0,0 l/m 3,5 km/h (1 Bft) W-SW 247 0 min 9,7 C 13,0 C 4,2 km/h (1 Bft)
31.12.2021 01:05 12,7 C 11,3 C 11,6 C 13,0 C 13,0 C 0,3 C 83 % 89 % 1018,4 hPa 0,0 l/m 3,7 km/h (1 Bft) W-SW 247 0 min 9,9 C 13,0 C 3,9 km/h (1 Bft)
31.12.2021 01:10 12,7 C 11,3 C 11,6 C 13,0 C 13,0 C 0,3 C 83 % 90 % 1018,4 hPa 0,0 l/m 4,3 km/h (1 Bft) NW 315 0 min 9,9 C 13,0 C 5,8 km/h (2 Bft)
31.12.2021 01:15 12,7 C 11,3 C 11,5 C 13,0 C 13,0 C 0,3 C 83 % 89 % 1018,4 hPa 0,0 l/m 5,1 km/h (1 Bft) S-SW 202 0 min 9,9 C 13,0 C 8,7 km/h (2 Bft)
31.12.2021 01:20 12,7 C 11,3 C 11,6 C 12,9 C 12,9 C 0,2 C 83 % 89 % 1018,4 hPa 0,0 l/m 5,8 km/h (2 Bft) S-SW 202 0 min 9,9 C 12,9 C 12,4 km/h (3 Bft)
31.12.2021 01:25 12,7 C 11,3 C 11,5 C 12,7 C 12,7 C 0,0 C 83 % 89 % 1018,4 hPa 0,0 l/m 7,1 km/h (2 Bft) SW 225 0 min 9,9 C 12,7 C 8,9 km/h (2 Bft)
31.12.2021 01:30 12,6 C 11,3 C 11,5 C 12,7 C 12,7 C 0,1 C 83 % 89 % 1018,6 hPa 0,0 l/m 7,2 km/h (2 Bft) SW 225 0 min 9,8 C 12,7 C 8,4 km/h (2 Bft)
31.12.2021 01:35 12,7 C 11,3 C 11,5 C 12,7 C 12,5 C 0,0 C 83 % 89 % 1018,6 hPa 0,0 l/m 7,9 km/h (2 Bft) S-SW 202 0 min 9,9 C 12,5 C 12,7 km/h (3 Bft)
31.12.2021 01:40 12,7 C 11,3 C 11,5 C 12,7 C 12,4 C 0,0 C 83 % 89 % 1018,6 hPa 0,0 l/m 8,4 km/h (2 Bft) W-SW 247 0 min 9,9 C 12,4 C 7,7 km/h (2 Bft)
31.12.2021 01:45 12,7 C 11,3 C 11,5 C 12,6 C 12,4 C 0,0 C 83 % 89 % 1018,6 hPa 0,0 l/m 8,7 km/h (2 Bft) SW 225 0 min 9,9 C 12,4 C 14,6 km/h (3 Bft)
31.12.2021 01:50 12,6 C 11,3 C 11,6 C 12,5 C 12,4 C 0,0 C 83 % 89 % 1018,9 hPa 0,0 l/m 8,5 km/h (2 Bft) S 180 0 min 9,8 C 12,4 C 10,3 km/h (2 Bft)
31.12.2021 01:55 12,6 C 11,3 C 11,6 C 12,7 C 12,6 C 0,1 C 83 % 89 % 1018,9 hPa 0,0 l/m 8,4 km/h (2 Bft) W-SW 247 0 min 9,8 C 12,6 C 13,7 km/h (3 Bft)
31.12.2021 02:00 12,7 C 11,3 C 11,6 C 12,7 C 12,6 C 0,0 C 83 % 89 % 1018,9 hPa 0,0 l/m 8,4 km/h (2 Bft) W-SW 247 0 min 9,9 C 12,6 C 17,9 km/h (3 Bft)
31.12.2021 02:05 12,6 C 11,3 C 11,5 C 12,7 C 12,5 C 0,1 C 83 % 89 % 1018,9 hPa 0,0 l/m 8,0 km/h (2 Bft) NW 315 0 min 9,8 C 12,5 C 8,4 km/h (2 Bft)
31.12.2021 02:10 12,7 C 11,3 C 11,5 C 12,7 C 12,6 C 0,0 C 83 % 89 % 1018,6 hPa 0,0 l/m 7,7 km/h (2 Bft) W-SW 247 0 min 9,9 C 12,6 C 5,0 km/h (1 Bft)
31.12.2021 02:15 12,6 C 11,3 C 11,5 C 12,6 C 12,6 C 0,0 C 83 % 89 % 1018,6 hPa 0,0 l/m 6,9 km/h (2 Bft) SW 225 0 min 9,8 C 12,6 C 9,0 km/h (2 Bft)
31.12.2021 02:20 12,6 C 11,3 C 11,5 C 12,7 C 12,7 C 0,1 C 83 % 89 % 1018,6 hPa 0,0 l/m 6,8 km/h (2 Bft) S 180 0 min 9,8 C 12,7 C 6,6 km/h (2 Bft)
31.12.2021 02:25 12,7 C 11,3 C 11,5 C 12,7 C 12,7 C 0,0 C 83 % 89 % 1018,6 hPa 0,0 l/m 6,9 km/h (2 Bft) SW 225 0 min 9,9 C 12,7 C 6,0 km/h (2 Bft)
31.12.2021 02:30 12,7 C 11,3 C 11,6 C 12,7 C 12,7 C 0,0 C 83 % 89 % 1018,5 hPa 0,0 l/m 6,9 km/h (2 Bft) W 270 0 min 9,9 C 12,7 C 7,1 km/h (2 Bft)
31.12.2021 02:35 12,6 C 11,3 C 11,6 C 12,9 C 12,9 C 0,3 C 83 % 89 % 1018,5 hPa 0,0 l/m 6,1 km/h (2 Bft) S-SW 202 0 min 9,8 C 12,9 C 7,7 km/h (2 Bft)
31.12.2021 02:40 12,6 C 11,3 C 11,6 C 13,0 C 13,0 C 0,4 C 83 % 89 % 1018,5 hPa 0,0 l/m 5,3 km/h (1 Bft) S 180 0 min 9,8 C 13,0 C 5,1 km/h (1 Bft)
31.12.2021 02:45 12,5 C 11,3 C 11,5 C 13,0 C 13,0 C 0,5 C 84 % 89 % 1018,5 hPa 0,0 l/m 4,7 km/h (1 Bft) SW 225 0 min 9,9 C 13,0 C 4,8 km/h (1 Bft)
31.12.2021 02:50 12,6 C 11,3 C 11,5 C 13,0 C 13,0 C 0,4 C 84 % 89 % 1018,4 hPa 0,0 l/m 4,0 km/h (1 Bft) NW 315 0 min 10,0 C 13,0 C 6,8 km/h (2 Bft)
31.12.2021 02:55 12,5 C 11,3 C 11,5 C 12,9 C 12,9 C 0,4 C 84 % 89 % 1018,4 hPa 0,0 l/m 4,7 km/h (1 Bft) SW 225 0 min 9,9 C 12,9 C 9,5 km/h (2 Bft)
31.12.2021 03:00 12,6 C 11,3 C 11,6 C 12,8 C 12,8 C 0,2 C 84 % 89 % 1018,4 hPa 0,0 l/m 6,3 km/h (2 Bft) W-SW 247 0 min 10,0 C 12,8 C 11,6 km/h (2 Bft)
31.12.2021 03:05 12,7 C 11,3 C 11,6 C 12,7 C 12,6 C 0,0 C 84 % 89 % 1018,4 hPa 0,0 l/m 7,6 km/h (2 Bft) W-SW 247 0 min 10,1 C 12,6 C 10,0 km/h (2 Bft)
31.12.2021 03:10 12,6 C 11,3 C 11,6 C 12,6 C 12,6 C 0,0 C 84 % 89 % 1018,7 hPa 0,0 l/m 7,6 km/h (2 Bft) W-SW 247 0 min 10,0 C 12,6 C 9,0 km/h (2 Bft)
31.12.2021 03:15 12,6 C 11,3 C 11,7 C 12,9 C 12,9 C 0,3 C 84 % 89 % 1018,7 hPa 0,0 l/m 6,8 km/h (2 Bft) S-SW 202 0 min 10,0 C 12,9 C 6,8 km/h (2 Bft)
31.12.2021 03:20 12,7 C 11,2 C 11,7 C 12,9 C 12,9 C 0,2 C 84 % 90 % 1018,7 hPa 0,0 l/m 6,6 km/h (2 Bft) W-SW 247 0 min 10,1 C 12,9 C 9,2 km/h (2 Bft)
31.12.2021 03:25 12,8 C 11,2 C 11,7 C 12,8 C 12,8 C 0,0 C 84 % 90 % 1018,7 hPa 0,0 l/m 7,1 km/h (2 Bft) SW 225 0 min 10,2 C 12,8 C 7,4 km/h (2 Bft)
31.12.2021 03:30 12,7 C 11,2 C 11,7 C 13,1 C 13,1 C 0,4 C 84 % 89 % 1018,9 hPa 0,0 l/m 5,6 km/h (1 Bft) W-NW 292 0 min 10,1 C 13,1 C 7,2 km/h (2 Bft)
31.12.2021 03:35 12,7 C 11,2 C 11,7 C 13,1 C 13,1 C 0,4 C 83 % 89 % 1018,9 hPa 0,0 l/m 4,8 km/h (1 Bft) NO 45 0 min 9,9 C 13,1 C 3,5 km/h (1 Bft)
31.12.2021 03:40 12,7 C 11,2 C 11,7 C 13,1 C 13,1 C 0,4 C 84 % 89 % 1018,9 hPa 0,0 l/m 5,1 km/h (1 Bft) S-SW 202 0 min 10,1 C 13,1 C 8,4 km/h (2 Bft)
31.12.2021 03:45 12,7 C 11,2 C 11,7 C 13,1 C 13,1 C 0,4 C 84 % 89 % 1018,9 hPa 0,0 l/m 5,8 km/h (2 Bft) W 270 0 min 10,1 C 13,1 C 6,3 km/h (2 Bft)
31.12.2021 03:50 12,7 C 11,2 C 11,6 C 13,0 C 13,0 C 0,3 C 84 % 89 % 1018,8 hPa 0,0 l/m 6,1 km/h (2 Bft) SW 225 0 min 10,1 C 13,0 C 8,2 km/h (2 Bft)
31.12.2021 03:55 12,6 C 11,2 C 11,7 C 13,0 C 13,0 C 0,4 C 84 % 89 % 1018,8 hPa 0,0 l/m 5,3 km/h (1 Bft) W-SW 247 0 min 10,0 C 13,0 C 5,8 km/h (2 Bft)
31.12.2021 04:00 12,7 C 11,2 C 11,6 C 13,0 C 13,0 C 0,3 C 84 % 89 % 1018,8 hPa 0,0 l/m 5,0 km/h (1 Bft) S-SO 157 0 min 10,1 C 13,0 C 6,1 km/h (2 Bft)
31.12.2021 04:05 12,7 C 11,2 C 11,7 C 13,0 C 13,0 C 0,3 C 84 % 89 % 1018,8 hPa 0,0 l/m 4,7 km/h (1 Bft) S-SO 157 0 min 10,1 C 13,0 C 10,1 km/h (2 Bft)
31.12.2021 04:10 12,7 C 11,2 C 11,7 C 13,0 C 13,0 C 0,3 C 84 % 89 % 1018,6 hPa 0,0 l/m 4,8 km/h (1 Bft) W-SW 247 0 min 10,1 C 13,0 C 6,8 km/h (2 Bft)
31.12.2021 04:15 12,7 C 11,2 C 11,6 C 12,9 C 12,9 C 0,2 C 84 % 89 % 1018,6 hPa 0,0 l/m 5,1 km/h (1 Bft) S 180 0 min 10,1 C 12,9 C 9,7 km/h (2 Bft)
31.12.2021 04:20 12,7 C 11,2 C 11,6 C 12,8 C 12,8 C 0,1 C 84 % 89 % 1018,6 hPa 0,0 l/m 5,0 km/h (1 Bft) SO 135 0 min 10,1 C 12,8 C 6,1 km/h (2 Bft)
31.12.2021 04:25 12,6 C 11,2 C 11,5 C 12,7 C 12,7 C 0,1 C 84 % 89 % 1018,6 hPa 0,0 l/m 5,5 km/h (1 Bft) NW 315 0 min 10,0 C 12,7 C 2,4 km/h (1 Bft)
31.12.2021 04:30 12,5 C 11,2 C 11,5 C 12,7 C 12,7 C 0,2 C 84 % 89 % 1018,9 hPa 0,0 l/m 5,5 km/h (1 Bft) W-SW 247 0 min 9,9 C 12,7 C 10,0 km/h (2 Bft)
31.12.2021 04:35 12,6 C 11,2 C 11,6 C 12,7 C 12,7 C 0,1 C 84 % 89 % 1018,9 hPa 0,0 l/m 5,6 km/h (1 Bft) S 180 0 min 10,0 C 12,7 C 9,7 km/h (2 Bft)
31.12.2021 04:40 12,7 C 11,2 C 11,6 C 12,9 C 12,9 C 0,2 C 84 % 89 % 1018,9 hPa 0,0 l/m 5,3 km/h (1 Bft) O-NO 67 0 min 10,1 C 12,9 C 6,1 km/h (2 Bft)
31.12.2021 04:45 12,5 C 11,2 C 11,5 C 12,8 C 12,8 C 0,3 C 84 % 89 % 1018,9 hPa 0,0 l/m 4,3 km/h (1 Bft) W-SW 247 0 min 9,9 C 12,8 C 4,7 km/h (1 Bft)
31.12.2021 04:50 12,5 C 11,2 C 11,5 C 12,8 C 12,8 C 0,3 C 84 % 89 % 1018,4 hPa 0,0 l/m 3,9 km/h (1 Bft) S 180 0 min 9,9 C 12,8 C 2,1 km/h (1 Bft)
31.12.2021 04:55 12,4 C 11,1 C 11,4 C 12,6 C 12,6 C 0,2 C 84 % 89 % 1018,4 hPa 0,0 l/m 3,9 km/h (1 Bft) SW 225 0 min 9,8 C 12,6 C 10,0 km/h (2 Bft)
31.12.2021 05:00 12,4 C 11,1 C 11,3 C 12,5 C 12,5 C 0,1 C 84 % 89 % 1018,4 hPa 0,0 l/m 5,0 km/h (1 Bft) SW 225 0 min 9,8 C 12,5 C 11,7 km/h (2 Bft)
31.12.2021 05:05 12,3 C 11,1 C 11,2 C 12,3 C 12,2 C 0,0 C 84 % 89 % 1018,4 hPa 0,0 l/m 5,6 km/h (1 Bft) SW 225 0 min 9,7 C 12,2 C 7,9 km/h (2 Bft)
31.12.2021 05:10 12,2 C 11,1 C 11,2 C 12,2 C 12,2 C 0,0 C 84 % 89 % 1018,4 hPa 0,0 l/m 5,5 km/h (1 Bft) S-SW 202 0 min 9,6 C 12,2 C 6,3 km/h (2 Bft)
31.12.2021 05:15 12,3 C 11,1 C 11,2 C 12,2 C 12,1 C 0,0 C 84 % 89 % 1018,4 hPa 0,0 l/m 5,8 km/h (2 Bft) SW 225 0 min 9,7 C 12,1 C 6,9 km/h (2 Bft)
31.12.2021 05:20 12,2 C 11,1 C 11,2 C 12,2 C 12,1 C 0,0 C 84 % 89 % 1018,4 hPa 0,0 l/m 6,4 km/h (2 Bft) W-SW 247 0 min 9,6 C 12,1 C 8,9 km/h (2 Bft)
31.12.2021 05:25 12,3 C 11,1 C 11,3 C 12,2 C 12,1 C 0,0 C 84 % 89 % 1018,4 hPa 0,0 l/m 7,2 km/h (2 Bft) W-SW 247 0 min 9,7 C 12,1 C 8,4 km/h (2 Bft)
31.12.2021 05:30 12,3 C 11,1 C 11,3 C 12,2 C 12,1 C 0,0 C 84 % 89 % 1018,4 hPa 0,0 l/m 7,7 km/h (2 Bft) S 180 0 min 9,7 C 12,1 C 6,0 km/h (2 Bft)
31.12.2021 05:35 12,3 C 11,1 C 11,3 C 12,2 C 12,1 C 0,0 C 84 % 89 % 1018,4 hPa 0,0 l/m 7,6 km/h (2 Bft) W-SW 247 0 min 9,7 C 12,1 C 11,6 km/h (2 Bft)
31.12.2021 05:40 12,3 C 11,1 C 11,3 C 12,3 C 12,3 C 0,0 C 84 % 89 % 1018,4 hPa 0,0 l/m 6,6 km/h (2 Bft) SO 135 0 min 9,7 C 12,3 C 5,0 km/h (1 Bft)
31.12.2021 05:45 12,3 C 11,1 C 11,4 C 12,4 C 12,4 C 0,1 C 84 % 89 % 1018,4 hPa 0,0 l/m 6,9 km/h (2 Bft) N 360 0 min 9,7 C 12,4 C 7,2 km/h (2 Bft)
31.12.2021 05:50 12,3 C 11,1 C 11,4 C 12,3 C 12,3 C 0,0 C 84 % 89 % 1018,6 hPa 0,0 l/m 7,1 km/h (2 Bft) W-SW 247 0 min 9,7 C 12,3 C 9,7 km/h (2 Bft)
31.12.2021 05:55 12,3 C 11,1 C 11,4 C 12,5 C 12,5 C 0,2 C 84 % 89 % 1018,6 hPa 0,0 l/m 6,3 km/h (2 Bft) SO 135 0 min 9,7 C 12,5 C 8,2 km/h (2 Bft)
31.12.2021 06:00 12,4 C 11,1 C 11,4 C 12,6 C 12,6 C 0,2 C 85 % 89 % 1018,6 hPa 0,0 l/m 6,3 km/h (2 Bft) W-SW 247 0 min 9,9 C 12,6 C 9,5 km/h (2 Bft)
31.12.2021 06:05 12,4 C 11,1 C 11,4 C 12,4 C 12,3 C 0,0 C 85 % 89 % 1018,6 hPa 0,0 l/m 7,4 km/h (2 Bft) SW 225 0 min 9,9 C 12,3 C 10,6 km/h (2 Bft)
31.12.2021 06:10 12,5 C 11,1 C 11,5 C 12,4 C 12,3 C 0,0 C 85 % 89 % 1018,6 hPa 0,0 l/m 7,7 km/h (2 Bft) SW 225 0 min 10,0 C 12,3 C 12,6 km/h (3 Bft)
31.12.2021 06:15 12,4 C 11,1 C 11,4 C 12,4 C 12,3 C 0,0 C 85 % 89 % 1018,6 hPa 0,0 l/m 7,9 km/h (2 Bft) S-SW 202 0 min 9,9 C 12,3 C 10,5 km/h (2 Bft)
31.12.2021 06:20 12,4 C 11,1 C 11,4 C 12,4 C 12,3 C 0,0 C 85 % 89 % 1018,6 hPa 0,0 l/m 7,2 km/h (2 Bft) S 180 0 min 9,9 C 12,3 C 7,6 km/h (2 Bft)
31.12.2021 06:25 12,4 C 11,1 C 11,5 C 12,4 C 12,2 C 0,0 C 85 % 89 % 1018,6 hPa 0,0 l/m 8,4 km/h (2 Bft) SW 225 0 min 9,9 C 12,2 C 10,3 km/h (2 Bft)
31.12.2021 06:30 12,5 C 11,1 C 11,5 C 12,5 C 12,1 C 0,0 C 85 % 89 % 1018,5 hPa 0,0 l/m 8,9 km/h (2 Bft) O-NO 67 0 min 10,0 C 12,1 C 6,8 km/h (2 Bft)
31.12.2021 06:35 12,5 C 11,1 C 11,5 C 12,5 C 12,4 C 0,0 C 85 % 89 % 1018,5 hPa 0,0 l/m 7,9 km/h (2 Bft) W-SW 247 0 min 10,0 C 12,4 C 10,5 km/h (2 Bft)
31.12.2021 06:40 12,5 C 11,1 C 11,5 C 12,5 C 12,5 C 0,0 C 85 % 89 % 1018,5 hPa 0,0 l/m 7,2 km/h (2 Bft) SW 225 0 min 10,0 C 12,5 C 9,2 km/h (2 Bft)
31.12.2021 06:45 12,6 C 11,1 C 11,6 C 12,7 C 12,7 C 0,1 C 84 % 89 % 1018,5 hPa 0,0 l/m 7,2 km/h (2 Bft) S-SW 202 0 min 10,0 C 12,7 C 11,4 km/h (2 Bft)
31.12.2021 06:50 12,7 C 11,1 C 11,7 C 12,7 C 12,7 C 0,0 C 84 % 88 % 1019,0 hPa 0,0 l/m 7,1 km/h (2 Bft) SW 225 0 min 10,1 C 12,7 C 8,7 km/h (2 Bft)
31.12.2021 06:55 12,7 C 11,1 C 11,7 C 12,7 C 12,4 C 0,0 C 84 % 88 % 1019,0 hPa 0,0 l/m 8,5 km/h (2 Bft) S 180 0 min 10,1 C 12,4 C 21,4 km/h (4 Bft)
31.12.2021 07:00 12,7 C 11,1 C 11,7 C 12,6 C 12,4 C 0,0 C 84 % 88 % 1019,0 hPa 0,0 l/m 9,5 km/h (2 Bft) W-SW 247 0 min 10,1 C 12,4 C 10,3 km/h (2 Bft)
31.12.2021 07:05 12,7 C 11,1 C 11,7 C 12,7 C 12,5 C 0,0 C 84 % 88 % 1019,0 hPa 0,0 l/m 9,0 km/h (2 Bft) S-SO 157 0 min 10,1 C 12,5 C 10,1 km/h (2 Bft)
31.12.2021 07:10 12,7 C 11,0 C 11,7 C 12,8 C 12,7 C 0,1 C 84 % 88 % 1018,5 hPa 0,0 l/m 7,9 km/h (2 Bft) W-SW 247 0 min 10,1 C 12,7 C 7,2 km/h (2 Bft)
31.12.2021 07:15 12,8 C 11,0 C 11,8 C 12,8 C 12,6 C 0,0 C 84 % 88 % 1018,5 hPa 0,0 l/m 8,5 km/h (2 Bft) W 270 0 min 10,2 C 12,6 C 9,3 km/h (2 Bft)
31.12.2021 07:20 12,7 C 11,0 C 11,8 C 12,7 C 12,6 C 0,0 C 84 % 88 % 1018,5 hPa 0,0 l/m 8,2 km/h (2 Bft) S 180 0 min 10,1 C 12,6 C 11,3 km/h (2 Bft)
31.12.2021 07:25 12,7 C 11,0 C 11,7 C 12,7 C 12,6 C 0,0 C 83 % 87 % 1018,5 hPa 0,0 l/m 8,2 km/h (2 Bft) W-SW 247 0 min 9,9 C 12,6 C 10,0 km/h (2 Bft)
31.12.2021 07:30 12,7 C 11,0 C 11,8 C 12,7 C 12,6 C 0,0 C 83 % 87 % 1018,4 hPa 0,0 l/m 8,4 km/h (2 Bft) W-SW 247 0 min 9,9 C 12,6 C 15,3 km/h (3 Bft)
31.12.2021 07:35 12,7 C 11,0 C 11,8 C 12,7 C 12,6 C 0,0 C 83 % 87 % 1018,4 hPa 0,0 l/m 8,7 km/h (2 Bft) SW 225 0 min 9,9 C 12,6 C 7,6 km/h (2 Bft)
31.12.2021 07:40 12,7 C 11,0 C 11,7 C 12,7 C 12,4 C 0,0 C 83 % 87 % 1018,4 hPa 0,0 l/m 9,7 km/h (2 Bft) SW 225 0 min 9,9 C 12,4 C 14,5 km/h (3 Bft)
31.12.2021 07:45 12,7 C 11,0 C 11,7 C 12,7 C 12,5 C 0,0 C 83 % 87 % 1018,4 hPa 0,0 l/m 9,0 km/h (2 Bft) W-SW 247 0 min 9,9 C 12,5 C 14,0 km/h (3 Bft)
31.12.2021 07:50 12,7 C 10,9 C 11,7 C 12,6 C 12,5 C 0,0 C 83 % 87 % 1018,6 hPa 0,0 l/m 9,0 km/h (2 Bft) SW 225 0 min 9,9 C 12,5 C 11,4 km/h (2 Bft)
31.12.2021 07:55 12,7 C 10,9 C 11,7 C 12,7 C 12,4 C 0,0 C 83 % 87 % 1018,6 hPa 0,0 l/m 9,7 km/h (2 Bft) SW 225 0 min 9,9 C 12,4 C 15,3 km/h (3 Bft)
31.12.2021 08:00 12,7 C 10,9 C 11,8 C 12,6 C 12,4 C 0,0 C 83 % 87 % 1018,6 hPa 0,0 l/m 9,3 km/h (2 Bft) S 180 0 min 9,9 C 12,4 C 10,8 km/h (2 Bft)
31.12.2021 08:05 12,7 C 10,9 C 11,7 C 12,6 C 12,4 C 0,0 C 83 % 87 % 1018,6 hPa 0,0 l/m 8,7 km/h (2 Bft) S-SO 157 0 min 9,9 C 12,4 C 7,9 km/h (2 Bft)
31.12.2021 08:10 12,7 C 10,9 C 11,7 C 12,7 C 12,5 C 0,0 C 83 % 87 % 1019,4 hPa 0,0 l/m 8,0 km/h (2 Bft) W-SW 247 0 min 9,9 C 12,5 C 9,8 km/h (2 Bft)
31.12.2021 08:15 12,7 C 10,9 C 11,8 C 12,7 C 12,6 C 0,0 C 83 % 87 % 1019,4 hPa 0,0 l/m 8,4 km/h (2 Bft) S-SW 202 0 min 9,9 C 12,6 C 8,5 km/h (2 Bft)
31.12.2021 08:20 12,8 C 10,9 C 11,9 C 12,8 C 12,7 C 0,0 C 82 % 87 % 1019,4 hPa 0,0 l/m 7,7 km/h (2 Bft) W 270 0 min 9,8 C 12,7 C 15,4 km/h (3 Bft)
31.12.2021 08:25 12,8 C 10,9 C 11,9 C 12,9 C 12,9 C 0,1 C 82 % 87 % 1019,4 hPa 0,0 l/m 6,4 km/h (2 Bft) O-SO 112 0 min 9,8 C 12,9 C 12,1 km/h (2 Bft)
31.12.2021 08:30 12,8 C 10,9 C 11,9 C 13,1 C 13,1 C 0,3 C 82 % 87 % 1019,4 hPa 0,0 l/m 6,0 km/h (2 Bft) S 180 5 min 9,8 C 13,1 C 6,3 km/h (2 Bft)
31.12.2021 08:35 12,8 C 10,9 C 11,9 C 13,1 C 13,1 C 0,3 C 82 % 87 % 1019,4 hPa 0,0 l/m 4,8 km/h (1 Bft) SW 225 0 min 9,8 C 13,1 C 7,6 km/h (2 Bft)
31.12.2021 08:40 12,8 C 10,9 C 11,9 C 13,1 C 13,1 C 0,3 C 82 % 87 % 1019,4 hPa 0,0 l/m 4,2 km/h (1 Bft) O-NO 67 0 min 9,8 C 13,1 C 2,7 km/h (1 Bft)
31.12.2021 08:45 12,7 C 10,9 C 11,9 C 13,0 C 13,0 C 0,3 C 83 % 87 % 1019,4 hPa 0,0 l/m 4,2 km/h (1 Bft) W-SW 247 0 min 9,9 C 13,0 C 5,6 km/h (1 Bft)
31.12.2021 08:50 12,7 C 10,9 C 11,9 C 13,0 C 13,0 C 0,3 C 83 % 87 % 1019,4 hPa 0,0 l/m 4,5 km/h (1 Bft) S-SO 157 0 min 9,9 C 13,0 C 6,9 km/h (2 Bft)
31.12.2021 08:55 12,7 C 10,8 C 11,8 C 13,0 C 13,0 C 0,3 C 83 % 87 % 1019,4 hPa 0,0 l/m 5,1 km/h (1 Bft) NW 315 0 min 9,9 C 13,0 C 2,1 km/h (1 Bft)
31.12.2021 09:00 12,6 C 10,9 C 11,8 C 13,0 C 13,0 C 0,4 C 83 % 87 % 1019,4 hPa 0,0 l/m 5,1 km/h (1 Bft) S-SW 202 0 min 9,8 C 13,0 C 5,8 km/h (2 Bft)
31.12.2021 09:05 12,7 C 10,8 C 11,8 C 13,0 C 13,0 C 0,3 C 83 % 87 % 1019,4 hPa 0,0 l/m 4,2 km/h (1 Bft) S 180 0 min 9,9 C 13,0 C 3,4 km/h (1 Bft)
31.12.2021 09:10 12,7 C 10,8 C 11,9 C 13,0 C 13,0 C 0,3 C 83 % 87 % 1019,0 hPa 0,0 l/m 4,3 km/h (1 Bft) SO 135 0 min 9,9 C 13,0 C 5,1 km/h (1 Bft)
31.12.2021 09:15 12,6 C 10,8 C 11,8 C 12,8 C 12,8 C 0,2 C 83 % 87 % 1019,0 hPa 0,0 l/m 6,3 km/h (2 Bft) W-SW 247 0 min 9,8 C 12,8 C 13,0 km/h (3 Bft)
31.12.2021 09:20 12,7 C 10,8 C 11,8 C 12,8 C 12,8 C 0,1 C 83 % 87 % 1019,0 hPa 0,0 l/m 6,6 km/h (2 Bft) S-SO 157 0 min 9,9 C 12,8 C 4,8 km/h (1 Bft)
31.12.2021 09:25 12,7 C 10,8 C 11,9 C 13,1 C 13,1 C 0,4 C 82 % 86 % 1019,0 hPa 0,0 l/m 5,8 km/h (2 Bft) SW 225 0 min 9,7 C 13,1 C 7,9 km/h (2 Bft)
31.12.2021 09:30 12,6 C 10,8 C 11,9 C 13,1 C 13,1 C 0,5 C 82 % 86 % 1019,1 hPa 0,0 l/m 5,1 km/h (1 Bft) S-SO 157 0 min 9,6 C 13,1 C 6,6 km/h (2 Bft)
31.12.2021 09:35 12,6 C 10,8 C 11,9 C 13,1 C 13,1 C 0,5 C 82 % 86 % 1019,1 hPa 0,0 l/m 4,0 km/h (1 Bft) SO 135 0 min 9,6 C 13,1 C 4,2 km/h (1 Bft)
31.12.2021 09:40 12,6 C 10,8 C 11,9 C 13,1 C 13,1 C 0,5 C 82 % 86 % 1019,1 hPa 0,0 l/m 4,2 km/h (1 Bft) S-SO 157 0 min 9,6 C 13,1 C 9,3 km/h (2 Bft)
31.12.2021 09:45 12,6 C 10,8 C 11,9 C 13,2 C 13,2 C 0,6 C 82 % 86 % 1019,1 hPa 0,0 l/m 4,0 km/h (1 Bft) O-NO 67 0 min 9,6 C 13,2 C 2,9 km/h (1 Bft)
31.12.2021 09:50 12,7 C 10,8 C 11,9 C 13,1 C 13,1 C 0,4 C 82 % 86 % 1019,0 hPa 0,0 l/m 4,0 km/h (1 Bft) W 270 0 min 9,7 C 13,1 C 6,0 km/h (2 Bft)
31.12.2021 09:55 12,7 C 10,8 C 12,0 C 13,1 C 13,1 C 0,4 C 82 % 85 % 1019,0 hPa 0,0 l/m 4,0 km/h (1 Bft) N-NO 22 0 min 9,7 C 13,1 C 2,6 km/h (1 Bft)
31.12.2021 10:00 12,6 C 10,8 C 12,0 C 13,2 C 13,2 C 0,6 C 82 % 85 % 1019,0 hPa 0,0 l/m 3,7 km/h (1 Bft) N-NW 337 0 min 9,6 C 13,2 C 5,0 km/h (1 Bft)
31.12.2021 10:05 12,6 C 10,8 C 12,1 C 13,3 C 13,3 C 0,7 C 82 % 85 % 1019,0 hPa 0,0 l/m 3,9 km/h (1 Bft) S-SO 157 0 min 9,6 C 13,3 C 7,6 km/h (2 Bft)
31.12.2021 10:10 12,7 C 10,8 C 12,1 C 13,3 C 13,3 C 0,6 C 82 % 85 % 1018,9 hPa 0,0 l/m 4,7 km/h (1 Bft) S-SW 202 0 min 9,7 C 13,3 C 7,4 km/h (2 Bft)
31.12.2021 10:15 12,7 C 10,8 C 12,1 C 13,3 C 13,3 C 0,6 C 82 % 84 % 1018,9 hPa 0,0 l/m 4,8 km/h (1 Bft) N-NW 337 0 min 9,7 C 13,3 C 5,0 km/h (1 Bft)
31.12.2021 10:20 12,8 C 10,8 C 12,2 C 13,4 C 13,4 C 0,6 C 82 % 84 % 1018,9 hPa 0,0 l/m 4,5 km/h (1 Bft) N-NO 22 0 min 9,8 C 13,4 C 3,7 km/h (1 Bft)
31.12.2021 10:25 12,8 C 10,8 C 12,2 C 13,5 C 13,5 C 0,7 C 81 % 84 % 1018,9 hPa 0,0 l/m 4,0 km/h (1 Bft) W-SW 247 0 min 9,6 C 13,5 C 10,3 km/h (2 Bft)
31.12.2021 10:30 12,8 C 10,8 C 12,2 C 13,5 C 13,5 C 0,7 C 81 % 84 % 1018,9 hPa 0,0 l/m 4,3 km/h (1 Bft) S-SO 157 0 min 9,6 C 13,5 C 6,4 km/h (2 Bft)
31.12.2021 10:35 12,8 C 10,8 C 12,3 C 13,7 C 13,7 C 0,9 C 81 % 84 % 1018,9 hPa 0,0 l/m 5,8 km/h (2 Bft) W-SW 247 0 min 9,6 C 13,7 C 9,7 km/h (2 Bft)
31.12.2021 10:40 12,9 C 10,8 C 12,4 C 13,8 C 13,8 C 0,9 C 81 % 84 % 1018,9 hPa 0,0 l/m 5,8 km/h (2 Bft) W 270 0 min 9,7 C 13,8 C 13,8 km/h (3 Bft)
31.12.2021 10:45 13,1 C 10,7 C 12,5 C 13,9 C 13,9 C 0,8 C 81 % 83 % 1018,9 hPa 0,0 l/m 6,1 km/h (2 Bft) S 180 0 min 9,9 C 13,9 C 8,7 km/h (2 Bft)
31.12.2021 10:50 13,1 C 10,7 C 12,5 C 14,0 C 14,0 C 0,9 C 81 % 83 % 1018,6 hPa 0,0 l/m 6,1 km/h (2 Bft) S 180 0 min 9,9 C 14,0 C 6,9 km/h (2 Bft)
31.12.2021 10:55 13,1 C 10,7 C 12,5 C 14,1 C 14,1 C 1,0 C 81 % 83 % 1018,6 hPa 0,0 l/m 5,6 km/h (1 Bft) N-NO 22 0 min 9,9 C 14,1 C 6,8 km/h (2 Bft)
31.12.2021 11:00 13,1 C 10,7 C 12,4 C 14,1 C 14,1 C 1,0 C 80 % 83 % 1018,6 hPa 0,0 l/m 5,5 km/h (1 Bft) S-SW 202 0 min 9,7 C 14,1 C 7,7 km/h (2 Bft)
31.12.2021 11:05 13,1 C 10,7 C 12,3 C 13,9 C 13,9 C 0,8 C 80 % 83 % 1018,6 hPa 0,0 l/m 5,5 km/h (1 Bft) O 90 0 min 9,7 C 13,9 C 5,1 km/h (1 Bft)
31.12.2021 11:10 13,2 C 10,7 C 12,3 C 13,8 C 13,8 C 0,6 C 80 % 83 % 1018,9 hPa 0,0 l/m 6,0 km/h (2 Bft) N-NW 337 0 min 9,8 C 13,8 C 5,3 km/h (1 Bft)
31.12.2021 11:15 13,2 C 10,7 C 12,4 C 14,4 C 14,4 C 1,2 C 80 % 83 % 1018,9 hPa 0,0 l/m 6,6 km/h (2 Bft) O-SO 112 0 min 9,8 C 14,4 C 6,6 km/h (2 Bft)
31.12.2021 11:20 13,3 C 10,7 C 12,5 C 15,1 C 15,1 C 1,8 C 80 % 83 % 1018,9 hPa 0,0 l/m 5,8 km/h (2 Bft) SO 135 0 min 9,9 C 15,1 C 6,1 km/h (2 Bft)
31.12.2021 11:25 13,5 C 10,7 C 12,5 C 16,2 C 16,2 C 2,7 C 80 % 83 % 1018,9 hPa 0,0 l/m 5,3 km/h (1 Bft) SO 135 0 min 10,1 C 16,2 C 8,5 km/h (2 Bft)
31.12.2021 11:30 13,5 C 10,7 C 12,5 C 16,6 C 16,6 C 3,1 C 80 % 83 % 1018,1 hPa 0,0 l/m 5,5 km/h (1 Bft) W 270 0 min 10,1 C 16,6 C 6,6 km/h (2 Bft)
31.12.2021 11:35 13,4 C 10,7 C 12,5 C 17,1 C 17,1 C 3,7 C 79 % 83 % 1018,1 hPa 0,0 l/m 5,5 km/h (1 Bft) W-SW 247 5 min 9,8 C 17,1 C 4,8 km/h (1 Bft)
31.12.2021 11:40 13,5 C 10,7 C 12,6 C 17,0 C 17,0 C 3,5 C 79 % 83 % 1018,1 hPa 0,0 l/m 5,3 km/h (1 Bft) S-SW 202 5 min 9,9 C 17,0 C 7,4 km/h (2 Bft)
31.12.2021 11:45 13,6 C 10,5 C 12,6 C 15,7 C 15,7 C 2,1 C 79 % 83 % 1018,1 hPa 0,0 l/m 5,5 km/h (1 Bft) W-SW 247 0 min 10,0 C 15,7 C 12,4 km/h (3 Bft)
31.12.2021 11:50 13,6 C 10,5 C 12,7 C 16,1 C 16,1 C 2,5 C 79 % 83 % 1018,2 hPa 0,0 l/m 5,8 km/h (2 Bft) SW 225 0 min 10,0 C 16,1 C 13,8 km/h (3 Bft)
31.12.2021 11:55 13,7 C 10,5 C 12,7 C 16,2 C 16,2 C 2,5 C 79 % 83 % 1018,2 hPa 0,0 l/m 6,9 km/h (2 Bft) O-SO 112 0 min 10,1 C 16,2 C 12,1 km/h (2 Bft)
31.12.2021 12:00 13,8 C 10,5 C 12,9 C 16,1 C 16,1 C 2,3 C 79 % 82 % 1018,2 hPa 0,0 l/m 8,0 km/h (2 Bft) SW 225 0 min 10,2 C 16,1 C 9,5 km/h (2 Bft)
31.12.2021 12:05 13,9 C 10,5 C 12,9 C 16,1 C 16,1 C 2,2 C 79 % 82 % 1018,2 hPa 0,0 l/m 8,0 km/h (2 Bft) W-SW 247 0 min 10,3 C 16,1 C 6,6 km/h (2 Bft)
31.12.2021 12:10 13,9 C 10,5 C 13,1 C 15,6 C 15,6 C 1,7 C 78 % 82 % 1018,0 hPa 0,0 l/m 7,9 km/h (2 Bft) NW 315 0 min 10,1 C 15,6 C 12,1 km/h (2 Bft)
31.12.2021 12:15 14,0 C 10,5 C 13,3 C 15,7 C 15,7 C 1,7 C 77 % 80 % 1018,0 hPa 0,0 l/m 6,9 km/h (2 Bft) N-NO 22 0 min 10,0 C 15,7 C 5,6 km/h (1 Bft)
31.12.2021 12:20 14,0 C 10,5 C 13,3 C 15,8 C 15,8 C 1,8 C 77 % 80 % 1018,0 hPa 0,0 l/m 6,6 km/h (2 Bft) SW 225 0 min 10,0 C 15,8 C 7,4 km/h (2 Bft)
31.12.2021 12:25 14,1 C 10,5 C 13,4 C 15,8 C 15,8 C 1,7 C 77 % 80 % 1018,0 hPa 0,0 l/m 7,7 km/h (2 Bft) N-NO 22 0 min 10,1 C 15,8 C 9,0 km/h (2 Bft)
31.12.2021 12:30 14,3 C 10,4 C 13,5 C 15,9 C 16,0 C 1,6 C 77 % 80 % 1017,8 hPa 0,0 l/m 8,5 km/h (2 Bft) W-SW 247 0 min 10,3 C 16,0 C 11,4 km/h (2 Bft)
31.12.2021 12:35 14,2 C 10,4 C 13,6 C 15,9 C 15,9 C 1,7 C 77 % 80 % 1017,8 hPa 0,0 l/m 7,7 km/h (2 Bft) SO 135 0 min 10,2 C 15,9 C 6,3 km/h (2 Bft)
31.12.2021 12:40 14,2 C 10,4 C 13,5 C 15,7 C 15,7 C 1,5 C 76 % 79 % 1017,8 hPa 0,0 l/m 7,1 km/h (2 Bft) SW 225 0 min 10,0 C 15,7 C 4,5 km/h (1 Bft)
31.12.2021 12:45 14,2 C 10,4 C 13,5 C 15,4 C 15,4 C 1,2 C 76 % 79 % 1017,8 hPa 0,0 l/m 7,2 km/h (2 Bft) SO 135 0 min 10,0 C 15,4 C 7,6 km/h (2 Bft)
31.12.2021 12:50 14,3 C 10,4 C 13,6 C 15,5 C 15,5 C 1,2 C 77 % 79 % 1017,9 hPa 0,0 l/m 6,4 km/h (2 Bft) S-SO 157 0 min 10,3 C 15,5 C 6,8 km/h (2 Bft)
31.12.2021 12:55 14,3 C 10,4 C 13,6 C 15,6 C 15,6 C 1,3 C 76 % 79 % 1017,9 hPa 0,0 l/m 6,9 km/h (2 Bft) S-SO 157 0 min 10,1 C 15,6 C 8,2 km/h (2 Bft)
31.12.2021 13:00 14,3 C 10,4 C 13,7 C 15,7 C 15,7 C 1,4 C 76 % 79 % 1017,9 hPa 0,0 l/m 7,9 km/h (2 Bft) W-SW 247 0 min 10,1 C 15,7 C 12,7 km/h (3 Bft)
31.12.2021 13:05 14,2 C 10,4 C 13,6 C 15,5 C 15,3 C 1,3 C 75 % 78 % 1017,9 hPa 0,0 l/m 9,8 km/h (2 Bft) SW 225 0 min 9,8 C 15,3 C 14,0 km/h (3 Bft)
31.12.2021 13:10 14,2 C 10,4 C 13,6 C 15,3 C 15,1 C 1,1 C 76 % 78 % 1017,8 hPa 0,0 l/m 9,5 km/h (2 Bft) NW 315 0 min 10,0 C 15,1 C 5,8 km/h (2 Bft)
31.12.2021 13:15 14,2 C 10,4 C 13,5 C 15,0 C 15,0 C 0,8 C 76 % 79 % 1017,8 hPa 0,0 l/m 6,8 km/h (2 Bft) SO 135 0 min 10,0 C 15,0 C 19,8 km/h (3 Bft)
31.12.2021 13:20 14,1 C 10,4 C 13,5 C 15,0 C 15,0 C 0,9 C 76 % 79 % 1017,8 hPa 0,0 l/m 6,3 km/h (2 Bft) W-SW 247 0 min 9,9 C 15,0 C 6,4 km/h (2 Bft)
31.12.2021 13:25 14,0 C 10,4 C 13,3 C 14,7 C 14,7 C 0,7 C 76 % 79 % 1017,8 hPa 0,0 l/m 6,0 km/h (2 Bft) S-SO 157 0 min 9,8 C 14,7 C 5,0 km/h (1 Bft)
31.12.2021 13:30 13,9 C 10,4 C 13,2 C 14,6 C 14,6 C 0,7 C 76 % 79 % 1017,6 hPa 0,0 l/m 5,0 km/h (1 Bft) SW 225 0 min 9,7 C 14,6 C 12,6 km/h (3 Bft)
31.12.2021 13:35 13,7 C 10,4 C 13,1 C 14,3 C 14,3 C 0,6 C 76 % 79 % 1017,6 hPa 0,0 l/m 5,8 km/h (2 Bft) O-NO 67 0 min 9,5 C 14,3 C 6,8 km/h (2 Bft)
31.12.2021 13:40 13,7 C 10,4 C 13,0 C 14,1 C 14,1 C 0,4 C 76 % 79 % 1017,6 hPa 0,0 l/m 6,1 km/h (2 Bft) O-NO 67 0 min 9,5 C 14,1 C 4,5 km/h (1 Bft)
31.12.2021 13:45 13,5 C 10,4 C 12,8 C 13,9 C 13,9 C 0,4 C 77 % 79 % 1017,6 hPa 0,0 l/m 6,4 km/h (2 Bft) W-SW 247 0 min 9,5 C 13,9 C 22,4 km/h (4 Bft)
31.12.2021 13:50 13,5 C 10,5 C 12,8 C 13,6 C 13,6 C 0,1 C 77 % 80 % 1017,4 hPa 0,0 l/m 7,2 km/h (2 Bft) W 270 0 min 9,5 C 13,6 C 9,0 km/h (2 Bft)
31.12.2021 13:55 13,3 C 10,5 C 12,7 C 13,7 C 13,7 C 0,4 C 77 % 80 % 1017,4 hPa 0,0 l/m 6,8 km/h (2 Bft) SO 135 0 min 9,4 C 13,7 C 15,8 km/h (3 Bft)
31.12.2021 14:00 13,2 C 10,5 C 12,7 C 13,7 C 13,7 C 0,5 C 78 % 80 % 1017,4 hPa 0,0 l/m 5,1 km/h (1 Bft) S-SO 157 0 min 9,4 C 13,7 C 5,1 km/h (1 Bft)
31.12.2021 14:05 13,2 C 10,5 C 12,5 C 13,6 C 13,6 C 0,4 C 78 % 81 % 1017,4 hPa 0,0 l/m 5,1 km/h (1 Bft) SO 135 0 min 9,4 C 13,6 C 5,8 km/h (2 Bft)
31.12.2021 14:10 13,3 C 10,5 C 12,5 C 13,6 C 13,6 C 0,3 C 78 % 81 % 1017,8 hPa 0,0 l/m 5,6 km/h (1 Bft) SO 135 0 min 9,5 C 13,6 C 10,9 km/h (2 Bft)
31.12.2021 14:15 13,2 C 10,5 C 12,4 C 13,5 C 13,5 C 0,3 C 78 % 81 % 1017,8 hPa 0,0 l/m 5,5 km/h (1 Bft) W-SW 247 0 min 9,4 C 13,5 C 8,7 km/h (2 Bft)
31.12.2021 14:20 13,1 C 10,5 C 12,3 C 13,5 C 13,5 C 0,4 C 78 % 81 % 1017,8 hPa 0,0 l/m 4,5 km/h (1 Bft) W-SW 247 0 min 9,4 C 13,5 C 4,2 km/h (1 Bft)
31.12.2021 14:25 13,0 C 10,5 C 12,3 C 13,3 C 13,3 C 0,3 C 78 % 81 % 1017,8 hPa 0,0 l/m 3,9 km/h (1 Bft) S-SO 157 0 min 9,3 C 13,3 C 5,6 km/h (1 Bft)
31.12.2021 14:30 13,1 C 10,5 C 12,3 C 13,3 C 13,3 C 0,2 C 78 % 81 % 1017,4 hPa 0,0 l/m 4,0 km/h (1 Bft) S-SO 157 0 min 9,4 C 13,3 C 11,3 km/h (2 Bft)
31.12.2021 14:35 13,0 C 10,5 C 12,2 C 13,3 C 13,3 C 0,3 C 78 % 82 % 1017,4 hPa 0,0 l/m 4,5 km/h (1 Bft) O-SO 112 0 min 9,3 C 13,3 C 6,6 km/h (2 Bft)
31.12.2021 14:40 13,0 C 10,5 C 12,1 C 13,3 C 13,3 C 0,3 C 79 % 82 % 1017,4 hPa 0,0 l/m 5,3 km/h (1 Bft) S-SW 202 0 min 9,4 C 13,3 C 6,4 km/h (2 Bft)
31.12.2021 14:45 12,9 C 10,6 C 12,0 C 13,2 C 13,2 C 0,3 C 79 % 82 % 1017,4 hPa 0,0 l/m 5,8 km/h (2 Bft) W-SW 247 0 min 9,3 C 13,2 C 4,5 km/h (1 Bft)
31.12.2021 14:50 12,9 C 10,6 C 12,0 C 13,2 C 13,2 C 0,3 C 79 % 82 % 1018,1 hPa 0,0 l/m 5,6 km/h (1 Bft) S 180 0 min 9,3 C 13,2 C 7,2 km/h (2 Bft)
31.12.2021 14:55 12,8 C 10,6 C 11,9 C 13,1 C 13,1 C 0,3 C 79 % 83 % 1018,1 hPa 0,0 l/m 5,8 km/h (2 Bft) N-NO 22 0 min 9,2 C 13,1 C 5,0 km/h (1 Bft)
31.12.2021 15:00 12,9 C 10,6 C 11,9 C 13,0 C 13,0 C 0,1 C 79 % 83 % 1018,1 hPa 0,0 l/m 5,6 km/h (1 Bft) W-SW 247 0 min 9,3 C 13,0 C 7,7 km/h (2 Bft)
31.12.2021 15:05 12,8 C 10,6 C 11,7 C 13,0 C 13,0 C 0,2 C 80 % 83 % 1018,1 hPa 0,0 l/m 4,7 km/h (1 Bft) S-SW 202 0 min 9,4 C 13,0 C 4,2 km/h (1 Bft)
31.12.2021 15:10 12,7 C 10,6 C 11,6 C 12,9 C 12,9 C 0,2 C 79 % 84 % 1017,2 hPa 0,0 l/m 4,0 km/h (1 Bft) W-SW 247 0 min 9,2 C 12,9 C 4,0 km/h (1 Bft)
31.12.2021 15:15 12,6 C 10,6 C 11,5 C 12,8 C 12,8 C 0,2 C 80 % 84 % 1017,2 hPa 0,0 l/m 3,9 km/h (1 Bft) SW 225 0 min 9,2 C 12,8 C 5,5 km/h (1 Bft)
31.12.2021 15:20 12,6 C 10,6 C 11,5 C 12,7 C 12,7 C 0,1 C 80 % 84 % 1017,2 hPa 0,0 l/m 4,3 km/h (1 Bft) S-SW 202 0 min 9,2 C 12,7 C 7,4 km/h (2 Bft)
31.12.2021 15:25 12,5 C 10,6 C 11,5 C 12,6 C 12,6 C 0,1 C 80 % 84 % 1017,2 hPa 0,0 l/m 5,1 km/h (1 Bft) SW 225 0 min 9,1 C 12,6 C 9,2 km/h (2 Bft)
31.12.2021 15:30 12,4 C 10,6 C 11,4 C 12,4 C 12,4 C 0,0 C 80 % 85 % 1017,4 hPa 0,0 l/m 5,6 km/h (1 Bft) W-SW 247 0 min 9,0 C 12,4 C 6,8 km/h (2 Bft)
31.12.2021 15:35 12,5 C 10,6 C 11,3 C 12,5 C 12,5 C 0,0 C 80 % 85 % 1017,4 hPa 0,0 l/m 5,3 km/h (1 Bft) SW 225 0 min 9,1 C 12,5 C 3,4 km/h (1 Bft)
31.12.2021 15:40 12,4 C 10,6 C 11,3 C 12,5 C 12,5 C 0,1 C 80 % 85 % 1017,4 hPa 0,0 l/m 3,7 km/h (1 Bft) W-SW 247 0 min 9,0 C 12,5 C 2,4 km/h (1 Bft)
31.12.2021 15:45 12,4 C 10,6 C 11,1 C 12,4 C 12,4 C 0,0 C 81 % 85 % 1017,4 hPa 0,0 l/m 2,3 km/h (1 Bft) SW 225 0 min 9,2 C 12,4 C 4,3 km/h (1 Bft)
31.12.2021 15:50 12,4 C 10,6 C 11,1 C 12,4 C 12,4 C 0,0 C 81 % 85 % 1018,1 hPa 0,0 l/m 2,7 km/h (1 Bft) SW 225 0 min 9,2 C 12,4 C 4,0 km/h (1 Bft)
31.12.2021 15:55 12,4 C 10,6 C 11,1 C 12,4 C 12,4 C 0,0 C 81 % 85 % 1018,1 hPa 0,0 l/m 4,3 km/h (1 Bft) SW 225 0 min 9,2 C 12,4 C 6,6 km/h (2 Bft)
31.12.2021 16:00 12,4 C 10,6 C 11,1 C 12,4 C 12,4 C 0,0 C 81 % 86 % 1018,1 hPa 0,0 l/m 4,7 km/h (1 Bft) W-SW 247 0 min 9,2 C 12,4 C 6,0 km/h (2 Bft)
31.12.2021 16:05 12,4 C 10,6 C 11,1 C 12,4 C 12,3 C 0,0 C 81 % 86 % 1018,1 hPa 0,0 l/m 5,0 km/h (1 Bft) SW 225 0 min 9,2 C 12,3 C 6,4 km/h (2 Bft)
31.12.2021 16:10 12,4 C 10,6 C 11,1 C 12,4 C 12,4 C 0,0 C 81 % 86 % 1017,3 hPa 0,0 l/m 5,0 km/h (1 Bft) SW 225 0 min 9,2 C 12,4 C 6,1 km/h (2 Bft)
31.12.2021 16:15 12,4 C 10,6 C 11,1 C 12,4 C 12,3 C 0,0 C 81 % 86 % 1017,3 hPa 0,0 l/m 5,5 km/h (1 Bft) S-SW 202 0 min 9,2 C 12,3 C 7,7 km/h (2 Bft)
31.12.2021 16:20 12,4 C 10,6 C 11,1 C 12,4 C 12,3 C 0,0 C 81 % 86 % 1017,3 hPa 0,0 l/m 5,6 km/h (1 Bft) SW 225 0 min 9,2 C 12,3 C 7,4 km/h (2 Bft)
31.12.2021 16:25 12,4 C 10,6 C 11,2 C 12,4 C 12,3 C 0,0 C 81 % 86 % 1017,3 hPa 0,0 l/m 6,1 km/h (2 Bft) W 270 0 min 9,2 C 12,3 C 8,5 km/h (2 Bft)
31.12.2021 16:30 12,4 C 10,6 C 11,2 C 12,4 C 12,3 C 0,0 C 81 % 86 % 1017,4 hPa 0,0 l/m 6,0 km/h (2 Bft) SW 225 0 min 9,2 C 12,3 C 6,0 km/h (2 Bft)
31.12.2021 16:35 12,3 C 10,6 C 11,2 C 12,4 C 12,4 C 0,1 C 81 % 85 % 1017,4 hPa 0,0 l/m 4,8 km/h (1 Bft) S-SO 157 0 min 9,1 C 12,4 C 5,6 km/h (1 Bft)
31.12.2021 16:40 12,3 C 10,6 C 11,2 C 12,4 C 12,4 C 0,1 C 81 % 85 % 1017,4 hPa 0,0 l/m 4,3 km/h (1 Bft) W 270 0 min 9,1 C 12,4 C 8,5 km/h (2 Bft)
31.12.2021 16:45 12,3 C 10,6 C 11,3 C 12,4 C 12,4 C 0,1 C 81 % 85 % 1017,4 hPa 0,0 l/m 4,0 km/h (1 Bft) N-NO 22 0 min 9,1 C 12,4 C 4,0 km/h (1 Bft)
31.12.2021 16:50 12,3 C 10,6 C 11,3 C 12,5 C 12,5 C 0,2 C 81 % 85 % 1017,1 hPa 0,0 l/m 4,0 km/h (1 Bft) SW 225 0 min 9,1 C 12,5 C 3,9 km/h (1 Bft)
31.12.2021 16:55 12,3 C 10,6 C 11,2 C 12,4 C 12,4 C 0,1 C 81 % 85 % 1017,1 hPa 0,0 l/m 4,0 km/h (1 Bft) W-SW 247 0 min 9,1 C 12,4 C 3,9 km/h (1 Bft)
31.12.2021 17:00 12,3 C 10,6 C 11,2 C 12,3 C 12,3 C 0,0 C 81 % 85 % 1017,1 hPa 0,0 l/m 3,7 km/h (1 Bft) W 270 0 min 9,1 C 12,3 C 6,3 km/h (2 Bft)
31.12.2021 17:05 12,2 C 10,6 C 11,3 C 12,3 C 12,3 C 0,1 C 81 % 85 % 1017,1 hPa 0,0 l/m 3,7 km/h (1 Bft) S 180 0 min 9,0 C 12,3 C 2,7 km/h (1 Bft)
31.12.2021 17:10 12,3 C 10,6 C 11,2 C 12,3 C 12,3 C 0,0 C 81 % 84 % 1017,6 hPa 0,0 l/m 3,7 km/h (1 Bft) S-SW 202 0 min 9,1 C 12,3 C 6,6 km/h (2 Bft)
31.12.2021 17:15 12,2 C 10,6 C 11,1 C 12,2 C 12,2 C 0,0 C 81 % 84 % 1017,6 hPa 0,0 l/m 3,4 km/h (1 Bft) SO 135 0 min 9,0 C 12,2 C 0,0 km/h (0 Bft)
31.12.2021 17:20 12,3 C 10,6 C 11,1 C 12,3 C 12,2 C 0,0 C 80 % 85 % 1017,6 hPa 0,0 l/m 3,4 km/h (1 Bft) S 180 0 min 8,9 C 12,2 C 6,0 km/h (2 Bft)
31.12.2021 17:25 12,3 C 10,6 C 11,1 C 12,3 C 12,2 C 0,0 C 81 % 85 % 1017,6 hPa 0,0 l/m 3,5 km/h (1 Bft) W-SW 247 0 min 9,1 C 12,2 C 9,2 km/h (2 Bft)
31.12.2021 17:30 12,3 C 10,6 C 11,1 C 12,3 C 12,2 C 0,0 C 80 % 84 % 1016,9 hPa 0,0 l/m 4,3 km/h (1 Bft) O-NO 67 0 min 8,9 C 12,2 C 5,6 km/h (1 Bft)
31.12.2021 17:35 12,3 C 10,6 C 11,1 C 12,3 C 12,2 C 0,0 C 80 % 85 % 1016,9 hPa 0,0 l/m 5,6 km/h (1 Bft) S 180 0 min 8,9 C 12,2 C 11,4 km/h (2 Bft)
31.12.2021 17:40 12,4 C 10,6 C 11,1 C 12,3 C 12,1 C 0,0 C 80 % 84 % 1016,9 hPa 0,0 l/m 6,4 km/h (2 Bft) SW 225 0 min 9,0 C 12,1 C 6,8 km/h (2 Bft)
31.12.2021 17:45 12,4 C 10,6 C 11,2 C 12,3 C 12,2 C 0,0 C 80 % 84 % 1016,9 hPa 0,0 l/m 6,6 km/h (2 Bft) O 90 0 min 9,0 C 12,2 C 6,1 km/h (2 Bft)
31.12.2021 17:50 12,4 C 10,6 C 11,3 C 12,3 C 12,1 C 0,0 C 80 % 84 % 1017,1 hPa 0,0 l/m 7,4 km/h (2 Bft) SW 225 0 min 9,0 C 12,1 C 15,3 km/h (3 Bft)
31.12.2021 17:55 12,4 C 10,6 C 11,3 C 12,3 C 12,1 C 0,0 C 80 % 84 % 1017,1 hPa 0,0 l/m 8,0 km/h (2 Bft) SW 225 0 min 9,0 C 12,1 C 6,0 km/h (2 Bft)
31.12.2021 18:00 12,5 C 10,6 C 11,3 C 12,4 C 12,2 C 0,0 C 80 % 84 % 1017,1 hPa 0,0 l/m 7,4 km/h (2 Bft) O 90 0 min 9,1 C 12,2 C 5,8 km/h (2 Bft)
31.12.2021 18:05 12,4 C 10,5 C 11,3 C 12,4 C 12,3 C 0,0 C 80 % 84 % 1017,1 hPa 0,0 l/m 6,1 km/h (2 Bft) SW 225 0 min 9,0 C 12,3 C 11,7 km/h (2 Bft)
31.12.2021 18:10 12,4 C 10,5 C 11,1 C 12,3 C 12,1 C 0,0 C 80 % 84 % 1017,2 hPa 0,0 l/m 6,6 km/h (2 Bft) SW 225 0 min 9,0 C 12,1 C 7,6 km/h (2 Bft)
31.12.2021 18:15 12,4 C 10,5 C 11,1 C 12,3 C 12,0 C 0,0 C 80 % 84 % 1017,2 hPa 0,0 l/m 6,9 km/h (2 Bft) S 180 0 min 9,0 C 12,0 C 5,5 km/h (1 Bft)
31.12.2021 18:20 12,4 C 10,5 C 11,1 C 12,3 C 12,2 C 0,0 C 80 % 84 % 1017,2 hPa 0,0 l/m 6,1 km/h (2 Bft) S-SO 157 0 min 9,0 C 12,2 C 4,5 km/h (1 Bft)
31.12.2021 18:25 12,3 C 10,5 C 11,3 C 12,4 C 12,4 C 0,1 C 80 % 84 % 1017,2 hPa 0,0 l/m 5,1 km/h (1 Bft) W 270 0 min 8,9 C 12,4 C 10,8 km/h (2 Bft)
31.12.2021 18:30 12,4 C 10,5 C 11,3 C 12,5 C 12,5 C 0,1 C 80 % 84 % 1017,3 hPa 0,0 l/m 4,5 km/h (1 Bft) W-SW 247 0 min 9,0 C 12,5 C 4,0 km/h (1 Bft)
31.12.2021 18:35 12,3 C 10,5 C 11,3 C 12,5 C 12,5 C 0,2 C 80 % 84 % 1017,3 hPa 0,0 l/m 4,3 km/h (1 Bft) SW 225 0 min 8,9 C 12,5 C 10,0 km/h (2 Bft)
31.12.2021 18:40 12,3 C 10,5 C 11,2 C 12,5 C 12,5 C 0,2 C 80 % 84 % 1017,3 hPa 0,0 l/m 4,2 km/h (1 Bft) W-SW 247 0 min 8,9 C 12,5 C 6,8 km/h (2 Bft)
31.12.2021 18:45 12,3 C 10,5 C 11,3 C 12,5 C 12,5 C 0,2 C 80 % 84 % 1017,3 hPa 0,0 l/m 5,3 km/h (1 Bft) W 270 0 min 8,9 C 12,5 C 4,0 km/h (1 Bft)
31.12.2021 18:50 12,3 C 10,5 C 11,3 C 12,4 C 12,4 C 0,1 C 80 % 84 % 1017,5 hPa 0,0 l/m 5,6 km/h (1 Bft) S-SW 202 0 min 8,9 C 12,4 C 8,5 km/h (2 Bft)
31.12.2021 18:55 12,4 C 10,5 C 11,3 C 12,4 C 12,4 C 0,0 C 80 % 84 % 1017,5 hPa 0,0 l/m 6,0 km/h (2 Bft) SW 225 0 min 9,0 C 12,4 C 5,5 km/h (1 Bft)
31.12.2021 19:00 12,4 C 10,5 C 11,3 C 12,4 C 12,4 C 0,0 C 80 % 84 % 1017,5 hPa 0,0 l/m 6,0 km/h (2 Bft) SO 135 0 min 9,0 C 12,4 C 5,1 km/h (1 Bft)
31.12.2021 19:05 12,3 C 10,5 C 11,3 C 12,5 C 12,5 C 0,2 C 80 % 84 % 1017,5 hPa 0,0 l/m 5,1 km/h (1 Bft) N-NO 22 0 min 8,9 C 12,5 C 3,2 km/h (1 Bft)
31.12.2021 19:10 12,3 C 10,5 C 11,4 C 12,5 C 12,5 C 0,2 C 80 % 84 % 1017,2 hPa 0,0 l/m 4,8 km/h (1 Bft) S-SO 157 0 min 8,9 C 12,5 C 11,1 km/h (2 Bft)
31.12.2021 19:15 12,3 C 10,5 C 11,4 C 12,5 C 12,5 C 0,2 C 80 % 84 % 1017,2 hPa 0,0 l/m 4,5 km/h (1 Bft) W-NW 292 0 min 8,9 C 12,5 C 3,5 km/h (1 Bft)
31.12.2021 19:20 12,3 C 10,5 C 11,4 C 12,5 C 12,5 C 0,2 C 81 % 84 % 1017,2 hPa 0,0 l/m 5,1 km/h (1 Bft) NO 45 0 min 9,1 C 12,5 C 8,4 km/h (2 Bft)
31.12.2021 19:25 12,3 C 10,5 C 11,5 C 12,5 C 12,5 C 0,2 C 80 % 84 % 1017,2 hPa 0,0 l/m 5,0 km/h (1 Bft) S-SO 157 0 min 8,9 C 12,5 C 6,9 km/h (2 Bft)
31.12.2021 19:30 12,4 C 10,5 C 11,5 C 12,6 C 12,6 C 0,2 C 80 % 84 % 1017,4 hPa 0,0 l/m 5,6 km/h (1 Bft) SW 225 0 min 9,0 C 12,6 C 6,9 km/h (2 Bft)
31.12.2021 19:35 12,4 C 10,5 C 11,5 C 12,6 C 12,6 C 0,2 C 80 % 84 % 1017,4 hPa 0,0 l/m 6,1 km/h (2 Bft) W-SW 247 0 min 9,0 C 12,6 C 7,4 km/h (2 Bft)
31.12.2021 19:40 12,4 C 10,5 C 11,5 C 12,5 C 12,5 C 0,1 C 80 % 84 % 1017,4 hPa 0,0 l/m 5,8 km/h (2 Bft) W 270 0 min 9,0 C 12,5 C 9,2 km/h (2 Bft)
31.12.2021 19:45 12,4 C 10,5 C 11,5 C 12,4 C 12,3 C 0,0 C 80 % 84 % 1017,4 hPa 0,0 l/m 7,1 km/h (2 Bft) NW 315 0 min 9,0 C 12,3 C 8,2 km/h (2 Bft)
31.12.2021 19:50 12,4 C 10,5 C 11,5 C 12,4 C 12,3 C 0,0 C 80 % 84 % 1017,8 hPa 0,0 l/m 8,0 km/h (2 Bft) S-SO 157 0 min 9,0 C 12,3 C 11,1 km/h (2 Bft)
31.12.2021 19:55 12,5 C 10,5 C 11,6 C 12,5 C 12,4 C 0,0 C 80 % 83 % 1017,8 hPa 0,0 l/m 7,9 km/h (2 Bft) W-SW 247 0 min 9,1 C 12,4 C 7,9 km/h (2 Bft)
31.12.2021 20:00 12,5 C 10,5 C 11,6 C 12,5 C 12,3 C 0,0 C 80 % 84 % 1017,8 hPa 0,0 l/m 8,2 km/h (2 Bft) S-SW 202 0 min 9,1 C 12,3 C 6,9 km/h (2 Bft)
31.12.2021 20:05 12,5 C 10,5 C 11,6 C 12,6 C 12,4 C 0,1 C 80 % 84 % 1017,8 hPa 0,0 l/m 8,5 km/h (2 Bft) SW 225 0 min 9,1 C 12,4 C 10,6 km/h (2 Bft)
31.12.2021 20:10 12,5 C 10,5 C 11,5 C 12,5 C 12,4 C 0,0 C 80 % 84 % 1018,3 hPa 0,0 l/m 8,7 km/h (2 Bft) W 270 0 min 9,1 C 12,4 C 12,7 km/h (3 Bft)
31.12.2021 20:15 12,5 C 10,5 C 11,6 C 12,5 C 12,4 C 0,0 C 80 % 84 % 1018,3 hPa 0,0 l/m 8,4 km/h (2 Bft) SW 225 0 min 9,1 C 12,4 C 11,6 km/h (2 Bft)
31.12.2021 20:20 12,5 C 10,5 C 11,6 C 12,5 C 12,4 C 0,0 C 80 % 84 % 1018,3 hPa 0,0 l/m 8,7 km/h (2 Bft) W-SW 247 0 min 9,1 C 12,4 C 11,7 km/h (2 Bft)
31.12.2021 20:25 12,5 C 10,5 C 11,5 C 12,5 C 12,3 C 0,0 C 80 % 84 % 1018,3 hPa 0,0 l/m 8,9 km/h (2 Bft) SW 225 0 min 9,1 C 12,3 C 11,7 km/h (2 Bft)
31.12.2021 20:30 12,4 C 10,5 C 11,5 C 12,4 C 12,2 C 0,0 C 80 % 84 % 1018,6 hPa 0,0 l/m 8,5 km/h (2 Bft) SW 225 0 min 9,0 C 12,2 C 10,5 km/h (2 Bft)
31.12.2021 20:35 12,4 C 10,5 C 11,3 C 12,3 C 11,9 C 0,0 C 80 % 84 % 1018,6 hPa 0,0 l/m 8,4 km/h (2 Bft) S-SW 202 0 min 9,0 C 11,9 C 8,4 km/h (2 Bft)
31.12.2021 20:40 12,3 C 10,5 C 11,2 C 12,1 C 11,8 C 0,0 C 80 % 84 % 1018,6 hPa 0,0 l/m 7,4 km/h (2 Bft) W-SW 247 0 min 8,9 C 11,8 C 7,7 km/h (2 Bft)
31.12.2021 20:45 12,3 C 10,5 C 11,2 C 12,2 C 11,9 C 0,0 C 80 % 84 % 1018,6 hPa 0,0 l/m 7,7 km/h (2 Bft) SW 225 0 min 8,9 C 11,9 C 12,9 km/h (3 Bft)
31.12.2021 20:50 12,3 C 10,5 C 11,3 C 12,2 C 11,8 C 0,0 C 80 % 84 % 1019,1 hPa 0,0 l/m 8,9 km/h (2 Bft) S 180 0 min 8,9 C 11,8 C 7,9 km/h (2 Bft)
31.12.2021 20:55 12,3 C 10,5 C 11,3 C 12,2 C 11,9 C 0,0 C 80 % 84 % 1019,1 hPa 0,0 l/m 8,0 km/h (2 Bft) W-SW 247 0 min 8,9 C 11,9 C 7,4 km/h (2 Bft)
31.12.2021 21:00 12,3 C 10,5 C 11,2 C 12,2 C 12,1 C 0,0 C 80 % 84 % 1019,1 hPa 0,0 l/m 7,2 km/h (2 Bft) SW 225 0 min 8,9 C 12,1 C 5,3 km/h (1 Bft)
31.12.2021 21:05 12,2 C 10,5 C 11,1 C 12,2 C 12,1 C 0,0 C 80 % 84 % 1019,1 hPa 0,0 l/m 6,8 km/h (2 Bft) S 180 0 min 8,9 C 12,1 C 8,0 km/h (2 Bft)
31.12.2021 21:10 12,3 C 10,5 C 11,1 C 12,3 C 12,2 C 0,0 C 80 % 85 % 1018,9 hPa 0,0 l/m 6,1 km/h (2 Bft) SW 225 0 min 8,9 C 12,2 C 5,3 km/h (1 Bft)
31.12.2021 21:15 12,1 C 10,5 C 11,0 C 12,2 C 12,2 C 0,1 C 81 % 85 % 1018,9 hPa 0,0 l/m 5,5 km/h (1 Bft) SO 135 0 min 8,9 C 12,2 C 6,0 km/h (2 Bft)
31.12.2021 21:20 12,1 C 10,5 C 11,0 C 12,1 C 12,1 C 0,0 C 81 % 85 % 1018,9 hPa 0,0 l/m 5,8 km/h (2 Bft) SW 225 0 min 8,9 C 12,1 C 9,8 km/h (2 Bft)
31.12.2021 21:25 12,1 C 10,5 C 10,9 C 12,0 C 11,9 C 0,0 C 81 % 85 % 1018,9 hPa 0,0 l/m 6,6 km/h (2 Bft) W-SW 247 0 min 8,9 C 11,9 C 3,4 km/h (1 Bft)
31.12.2021 21:30 12,0 C 10,5 C 10,9 C 11,9 C 11,8 C 0,0 C 81 % 85 % 1019,4 hPa 0,0 l/m 6,4 km/h (2 Bft) W-SW 247 0 min 8,8 C 11,8 C 7,1 km/h (2 Bft)
31.12.2021 21:35 12,1 C 10,5 C 10,9 C 12,1 C 12,0 C 0,0 C 81 % 85 % 1019,4 hPa 0,0 l/m 6,0 km/h (2 Bft) SW 225 0 min 8,9 C 12,0 C 11,7 km/h (2 Bft)
31.12.2021 21:40 12,0 C 10,5 C 10,9 C 11,9 C 11,8 C 0,0 C 81 % 85 % 1019,4 hPa 0,0 l/m 6,9 km/h (2 Bft) SW 225 0 min 8,8 C 11,8 C 10,6 km/h (2 Bft)
31.12.2021 21:45 12,1 C 10,5 C 11,0 C 12,0 C 11,7 C 0,0 C 81 % 86 % 1019,4 hPa 0,0 l/m 7,6 km/h (2 Bft) SW 225 0 min 8,9 C 11,7 C 6,0 km/h (2 Bft)
31.12.2021 21:50 12,1 C 10,5 C 11,0 C 12,0 C 11,9 C 0,0 C 81 % 86 % 1020,3 hPa 0,0 l/m 7,4 km/h (2 Bft) SW 225 0 min 8,9 C 11,9 C 6,6 km/h (2 Bft)
31.12.2021 21:55 12,1 C 10,5 C 11,1 C 12,1 C 12,1 C 0,0 C 81 % 85 % 1020,3 hPa 0,0 l/m 6,9 km/h (2 Bft) S 180 0 min 8,9 C 12,1 C 7,7 km/h (2 Bft)
31.12.2021 22:00 12,1 C 10,5 C 11,1 C 12,2 C 12,2 C 0,1 C 81 % 85 % 1020,3 hPa 0,0 l/m 6,4 km/h (2 Bft) S 180 0 min 8,9 C 12,2 C 3,4 km/h (1 Bft)
31.12.2021 22:05 12,1 C 10,5 C 11,1 C 12,4 C 12,4 C 0,3 C 81 % 85 % 1020,3 hPa 0,0 l/m 5,5 km/h (1 Bft) SW 225 0 min 8,9 C 12,4 C 8,9 km/h (2 Bft)
31.12.2021 22:10 12,1 C 10,5 C 11,1 C 12,5 C 12,5 C 0,4 C 81 % 85 % 1019,8 hPa 0,0 l/m 4,2 km/h (1 Bft) S 180 0 min 8,9 C 12,5 C 4,2 km/h (1 Bft)
31.12.2021 22:15 12,0 C 10,5 C 11,1 C 12,4 C 12,4 C 0,4 C 81 % 85 % 1019,8 hPa 0,0 l/m 3,7 km/h (1 Bft) O-SO 112 0 min 8,8 C 12,4 C 4,3 km/h (1 Bft)
31.12.2021 22:20 12,0 C 10,5 C 11,1 C 12,4 C 12,4 C 0,4 C 81 % 85 % 1019,8 hPa 0,0 l/m 3,5 km/h (1 Bft) W-SW 247 0 min 8,8 C 12,4 C 5,0 km/h (1 Bft)
31.12.2021 22:25 12,0 C 10,5 C 11,0 C 12,3 C 12,3 C 0,3 C 81 % 85 % 1019,8 hPa 0,0 l/m 3,4 km/h (1 Bft) S-SO 157 0 min 8,8 C 12,3 C 4,0 km/h (1 Bft)
31.12.2021 22:30 12,1 C 10,5 C 11,0 C 12,3 C 12,3 C 0,2 C 81 % 86 % 1019,7 hPa 0,0 l/m 3,4 km/h (1 Bft) W-SW 247 0 min 8,9 C 12,3 C 3,9 km/h (1 Bft)
31.12.2021 22:35 12,1 C 10,5 C 10,9 C 12,3 C 12,3 C 0,2 C 81 % 86 % 1019,7 hPa 0,0 l/m 3,5 km/h (1 Bft) SW 225 0 min 8,9 C 12,3 C 4,2 km/h (1 Bft)
31.12.2021 22:40 12,0 C 10,5 C 10,9 C 12,3 C 12,3 C 0,3 C 81 % 86 % 1019,7 hPa 0,0 l/m 3,4 km/h (1 Bft) W-SW 247 0 min 8,8 C 12,3 C 3,1 km/h (1 Bft)
31.12.2021 22:45 12,0 C 10,5 C 10,9 C 12,3 C 12,3 C 0,3 C 82 % 86 % 1019,7 hPa 0,0 l/m 4,5 km/h (1 Bft) W-SW 247 0 min 9,0 C 12,3 C 6,4 km/h (2 Bft)
31.12.2021 22:50 12,0 C 10,5 C 11,0 C 12,3 C 12,3 C 0,3 C 82 % 86 % 1020,8 hPa 0,0 l/m 5,0 km/h (1 Bft) SW 225 0 min 9,0 C 12,3 C 6,9 km/h (2 Bft)
31.12.2021 22:55 12,1 C 10,5 C 11,0 C 12,2 C 12,2 C 0,1 C 82 % 86 % 1020,8 hPa 0,0 l/m 5,6 km/h (1 Bft) S 180 0 min 9,1 C 12,2 C 6,8 km/h (2 Bft)
31.12.2021 23:00 12,1 C 10,5 C 11,0 C 12,2 C 12,2 C 0,1 C 82 % 86 % 1020,8 hPa 0,0 l/m 5,3 km/h (1 Bft) W-SW 247 0 min 9,1 C 12,2 C 3,2 km/h (1 Bft)
31.12.2021 23:05 12,0 C 10,5 C 11,0 C 12,3 C 12,3 C 0,3 C 82 % 86 % 1020,8 hPa 0,0 l/m 4,8 km/h (1 Bft) W-SW 247 0 min 9,0 C 12,3 C 7,9 km/h (2 Bft)
31.12.2021 23:10 12,0 C 10,5 C 11,0 C 12,3 C 12,3 C 0,3 C 82 % 86 % 1020,5 hPa 0,0 l/m 4,2 km/h (1 Bft) S-SW 202 0 min 9,0 C 12,3 C 3,9 km/h (1 Bft)
31.12.2021 23:15 12,0 C 10,5 C 11,0 C 12,2 C 12,2 C 0,2 C 82 % 86 % 1020,5 hPa 0,0 l/m 3,2 km/h (1 Bft) S-SO 157 0 min 9,0 C 12,2 C 2,6 km/h (1 Bft)
31.12.2021 23:20 11,9 C 10,5 C 11,0 C 12,2 C 12,2 C 0,3 C 82 % 86 % 1020,5 hPa 0,0 l/m 2,9 km/h (1 Bft) W-SW 247 0 min 8,9 C 12,2 C 6,6 km/h (2 Bft)
31.12.2021 23:25 11,9 C 10,5 C 10,9 C 12,2 C 12,2 C 0,3 C 82 % 86 % 1020,5 hPa 0,0 l/m 3,5 km/h (1 Bft) SW 225 0 min 8,9 C 12,2 C 6,6 km/h (2 Bft)
31.12.2021 23:30 11,9 C 10,5 C 10,9 C 12,2 C 12,2 C 0,3 C 82 % 86 % 1020,5 hPa 0,0 l/m 4,7 km/h (1 Bft) SW 225 0 min 8,9 C 12,2 C 8,2 km/h (2 Bft)
31.12.2021 23:35 11,9 C 10,5 C 10,9 C 12,2 C 12,2 C 0,3 C 82 % 86 % 1020,5 hPa 0,0 l/m 5,0 km/h (1 Bft) S-SW 202 0 min 8,9 C 12,2 C 12,1 km/h (2 Bft)
31.12.2021 23:40 11,8 C 10,5 C 10,9 C 12,1 C 12,1 C 0,3 C 82 % 86 % 1020,5 hPa 0,0 l/m 5,6 km/h (1 Bft) SW 225 0 min 8,8 C 12,1 C 10,8 km/h (2 Bft)
31.12.2021 23:45 11,9 C 10,5 C 11,0 C 11,9 C 11,8 C 0,0 C 83 % 87 % 1020,5 hPa 0,0 l/m 7,1 km/h (2 Bft) O 90 0 min 9,1 C 11,8 C 8,2 km/h (2 Bft)
31.12.2021 23:50 12,1 C 10,5 C 11,1 C 12,0 C 11,7 C 0,0 C 83 % 87 % 1020,2 hPa 0,0 l/m 7,6 km/h (2 Bft) S 180 0 min 9,3 C 11,7 C 8,9 km/h (2 Bft)
31.12.2021 23:55 12,0 C 10,5 C 11,1 C 12,0 C 11,9 C 0,0 C 83 % 86 % 1020,2 hPa 0,0 l/m 7,4 km/h (2 Bft) SW 225 0 min 9,2 C 11,9 C 6,6 km/h (2 Bft)
_ Min-Zeit 23:40 12:30 21:25 21:30 21:45 01:25 13:05 13:05 17:30 - 15:45 - - - 23:40 21:45 00:40
Minimum _ 11,8 C 10,4 C 10,9 C 11,9 C 11,7 C 0,0 C 75 % 78 % 1016,9 hPa - 2,3 km/h (1 Bft) - - - 8,8 C 11,7 C 0,0 km/h (0 Bft)
_ Max-Zeit 12:30 00:00 13:00 11:35 11:35 11:35 06:00 00:00 22:50 00:00 13:05 - - 08:30 12:30 11:35 13:45
Maximum _ 14,3 C 11,3 C 13,7 C 17,1 C 17,1 C 3,7 C 85 % 90 % 1020,8 hPa 0,0 l/m 9,8 km/h
SW (2 Bft)
- - 5 min 10,3 C 17,1 C 22,4 km/h
W-SW (4 Bft)
Durchschnitt _ 12,7 C 10,8 C 11,7 C 13,0 C 13,0 C 0,3 C 81 % 86 % 1018,4 hPa #0,0 l/m 6,0 km/h (2 Bft) SW - #15 min. 9,6 C 13,0 C 7,7 km/h (2 Bft)
2022 www.wetterstation-wechselburg.de